createdAt,value
2023-05-06T00:00:27.630Z,8.90
2023-05-06T00:02:54.473Z,8.23
2023-05-06T00:05:21.081Z,8.68
2023-05-06T00:07:47.677Z,8.65
2023-05-06T00:10:17.083Z,8.90
2023-05-06T00:12:43.865Z,9.82
2023-05-06T00:15:13.303Z,9.35
2023-05-06T00:17:39.954Z,9.10
2023-05-06T00:20:07.415Z,9.52
2023-05-06T00:22:36.467Z,9.13
2023-05-06T00:25:03.151Z,9.60
2023-05-06T00:27:29.865Z,10.32
2023-05-06T00:30:01.413Z,9.40
2023-05-06T00:32:28.107Z,9.20
2023-05-06T00:34:54.815Z,9.88
2023-05-06T00:37:21.483Z,9.20
2023-05-06T00:39:50.829Z,9.30
2023-05-06T00:42:17.430Z,10.23
2023-05-06T00:44:44.219Z,9.43
2023-05-06T00:47:10.796Z,9.63
2023-05-06T00:49:39.556Z,9.25
2023-05-06T00:52:09.047Z,9.48
2023-05-06T00:54:35.919Z,10.15
2023-05-06T00:57:02.793Z,10.30
2023-05-06T00:59:29.382Z,10.00
2023-05-06T01:01:56.097Z,10.00
2023-05-06T01:04:26.032Z,10.35
2023-05-06T01:07:03.021Z,10.45
2023-05-06T01:09:42.177Z,10.07
2023-05-06T01:12:17.905Z,9.57
2023-05-06T01:15:11.090Z,10.63
2023-05-06T01:17:50.445Z,10.13
2023-05-06T01:20:18.568Z,11.30
2023-05-06T01:22:50.005Z,11.45
2023-05-06T01:25:21.313Z,11.18
2023-05-06T01:27:50.533Z,12.20
2023-05-06T01:30:19.628Z,11.98
2023-05-06T01:32:55.330Z,12.68
2023-05-06T01:35:52.403Z,12.23
2023-05-06T01:38:31.291Z,12.45
2023-05-06T01:41:00.232Z,12.07
2023-05-06T01:43:32.735Z,12.30
2023-05-06T01:46:01.425Z,12.43
2023-05-06T01:48:33.834Z,12.50
2023-05-06T01:51:00.584Z,13.18
2023-05-06T01:53:27.123Z,12.68
2023-05-06T01:55:53.827Z,12.45
2023-05-06T01:58:20.424Z,12.52
2023-05-06T02:00:47.000Z,12.88
2023-05-06T02:03:19.159Z,12.32
2023-05-06T02:05:46.183Z,12.48
2023-05-06T02:08:13.203Z,12.57
2023-05-06T02:10:39.794Z,12.23
2023-05-06T02:13:06.559Z,12.35
2023-05-06T02:15:33.308Z,12.70
2023-05-06T02:18:00.085Z,13.07
2023-05-06T02:20:26.849Z,12.43
2023-05-06T02:22:53.403Z,12.65
2023-05-06T02:25:22.232Z,12.98
2023-05-06T02:27:48.801Z,11.93
2023-05-06T02:30:20.344Z,11.45
2023-05-06T02:32:47.317Z,13.13
2023-05-06T02:35:13.973Z,12.65
2023-05-06T02:37:40.587Z,12.55
2023-05-06T02:40:08.962Z,12.93
2023-05-06T02:42:36.009Z,13.05
2023-05-06T02:45:05.171Z,12.73
2023-05-06T02:47:31.741Z,12.25
2023-05-06T02:50:00.756Z,13.00
2023-05-06T02:52:27.312Z,13.00
2023-05-06T02:54:53.868Z,12.35
2023-05-06T02:57:25.350Z,12.43
2023-05-06T02:59:54.372Z,11.90
2023-05-06T03:02:20.978Z,12.07
2023-05-06T03:04:47.696Z,11.93
2023-05-06T03:07:14.382Z,11.82
2023-05-06T03:09:40.921Z,11.57
2023-05-06T03:12:07.512Z,12.15
2023-05-06T03:14:34.115Z,13.50
2023-05-06T03:17:00.661Z,12.55
2023-05-06T03:19:27.254Z,12.68
2023-05-06T03:21:53.793Z,10.85
2023-05-06T03:24:20.501Z,11.07
2023-05-06T03:26:49.646Z,10.77
2023-05-06T03:29:16.208Z,11.07
2023-05-06T03:31:42.783Z,11.38
2023-05-06T03:34:09.478Z,10.95
2023-05-06T03:36:36.131Z,10.27
2023-05-06T03:39:02.829Z,11.15
2023-05-06T03:41:31.923Z,11.00
2023-05-06T03:44:01.817Z,11.15
2023-05-06T03:46:30.937Z,10.07
2023-05-06T03:48:58.341Z,10.70
2023-05-06T03:51:24.983Z,10.25
2023-05-06T03:53:54.942Z,10.27
2023-05-06T03:56:22.368Z,9.75
2023-05-06T03:58:49.002Z,10.68
2023-05-06T04:01:17.240Z,9.82
2023-05-06T04:03:46.586Z,10.43
2023-05-06T04:06:13.216Z,9.65
2023-05-06T04:08:39.894Z,10.20
2023-05-06T04:11:07.881Z,10.50
2023-05-06T04:13:35.026Z,9.48
2023-05-06T04:16:01.777Z,10.27
2023-05-06T04:18:28.867Z,9.55
2023-05-06T04:20:55.529Z,10.48
2023-05-06T04:23:22.176Z,9.52
2023-05-06T04:25:48.902Z,9.55
2023-05-06T04:28:19.417Z,8.65
2023-05-06T04:30:46.655Z,9.13
2023-05-06T04:33:13.531Z,9.02
2023-05-06T04:35:40.546Z,9.25
2023-05-06T04:38:07.197Z,9.07
2023-05-06T04:40:39.386Z,8.80
2023-05-06T04:43:06.089Z,9.20
2023-05-06T04:45:37.831Z,9.90
2023-05-06T04:48:04.785Z,8.50
2023-05-06T04:50:34.786Z,9.23
2023-05-06T04:53:01.450Z,8.38
2023-05-06T04:55:30.625Z,8.80
2023-05-06T04:57:57.170Z,8.60
2023-05-06T05:00:26.286Z,8.85
2023-05-06T05:02:55.480Z,7.45
2023-05-06T05:05:22.144Z,7.70
2023-05-06T05:07:51.385Z,8.30
2023-05-06T05:10:17.962Z,7.70
2023-05-06T05:12:44.932Z,7.40
2023-05-06T05:15:11.910Z,7.63
2023-05-06T05:17:38.888Z,7.57
2023-05-06T05:20:06.414Z,7.43
2023-05-06T05:22:33.025Z,7.45
2023-05-06T05:24:59.823Z,7.20
2023-05-06T05:27:26.651Z,7.88
2023-05-06T05:29:53.246Z,7.63
2023-05-06T05:32:20.318Z,7.68
2023-05-06T05:34:47.116Z,7.22
2023-05-06T05:37:13.834Z,8.02
2023-05-06T05:39:42.472Z,7.20
2023-05-06T05:42:09.269Z,7.32
2023-05-06T05:44:35.955Z,6.97
2023-05-06T05:47:03.085Z,6.78
2023-05-06T05:49:30.107Z,6.90
2023-05-06T05:51:57.314Z,7.35
2023-05-06T05:54:24.009Z,7.32
2023-05-06T05:56:51.597Z,7.50
2023-05-06T05:59:20.749Z,7.68
2023-05-06T06:01:47.373Z,7.05
2023-05-06T06:04:14.988Z,6.90
2023-05-06T06:06:49.489Z,8.00
2023-05-06T06:09:17.242Z,6.70
2023-05-06T06:11:46.275Z,7.28
2023-05-06T06:14:12.807Z,6.90
2023-05-06T06:16:39.621Z,6.97
2023-05-06T06:19:06.609Z,7.15
2023-05-06T06:21:33.300Z,7.00
2023-05-06T06:23:59.994Z,6.60
2023-05-06T06:26:26.786Z,6.78
2023-05-06T06:28:53.390Z,6.18
2023-05-06T06:31:20.003Z,6.90
2023-05-06T06:33:46.655Z,6.63
2023-05-06T06:36:15.799Z,6.95
2023-05-06T06:38:42.494Z,7.07
2023-05-06T06:41:09.671Z,6.10
2023-05-06T06:43:36.662Z,6.75
2023-05-06T06:46:03.606Z,6.25
2023-05-06T06:48:30.439Z,6.07
2023-05-06T06:50:59.523Z,6.00
2023-05-06T06:53:30.982Z,6.07
2023-05-06T06:55:57.562Z,5.50
2023-05-06T06:58:24.372Z,6.13
2023-05-06T07:00:51.132Z,5.07
2023-05-06T07:03:19.506Z,6.05
2023-05-06T07:05:46.725Z,5.65
2023-05-06T07:08:13.358Z,5.53
2023-05-06T07:10:42.437Z,5.28
2023-05-06T07:13:09.113Z,5.70
2023-05-06T07:15:36.044Z,6.35
2023-05-06T07:18:02.754Z,6.20
2023-05-06T07:20:30.816Z,5.75
2023-05-06T07:22:57.534Z,6.72
2023-05-06T07:25:24.799Z,6.32
2023-05-06T07:27:51.440Z,6.70
2023-05-06T07:30:22.895Z,7.30
2023-05-06T07:32:49.842Z,8.00
2023-05-06T07:35:16.883Z,8.23
2023-05-06T07:37:46.346Z,8.75
2023-05-06T07:40:18.117Z,9.45
2023-05-06T07:42:45.112Z,9.52
2023-05-06T07:45:12.159Z,8.30
2023-05-06T07:47:39.132Z,9.38
2023-05-06T07:50:06.954Z,8.27
2023-05-06T07:52:36.689Z,8.48
2023-05-06T07:55:04.372Z,8.82
2023-05-06T07:57:31.022Z,8.90
2023-05-06T07:59:59.059Z,8.85
2023-05-06T08:02:32.330Z,8.55
2023-05-06T08:04:59.387Z,8.90
2023-05-06T08:07:28.336Z,9.05
2023-05-06T08:09:54.995Z,9.13
2023-05-06T08:12:21.862Z,9.25
2023-05-06T08:14:48.657Z,9.43
2023-05-06T08:17:15.497Z,9.05
2023-05-06T08:19:42.197Z,9.35
2023-05-06T08:22:09.003Z,10.23
2023-05-06T08:24:35.826Z,9.52
2023-05-06T08:27:03.000Z,9.02
2023-05-06T08:29:29.732Z,8.55
2023-05-06T08:31:58.897Z,9.43
2023-05-06T08:34:25.644Z,8.63
2023-05-06T08:36:52.868Z,10.07
2023-05-06T08:39:19.462Z,9.82
2023-05-06T08:41:52.435Z,9.77
2023-05-06T08:44:23.175Z,9.32
2023-05-06T08:46:50.285Z,9.68
2023-05-06T08:49:19.657Z,9.60
2023-05-06T08:51:47.737Z,9.27
2023-05-06T08:54:17.509Z,9.10
2023-05-06T08:56:48.433Z,8.98
2023-05-06T08:59:17.253Z,9.68
2023-05-06T09:01:44.108Z,9.90
2023-05-06T09:04:11.248Z,9.23
2023-05-06T09:06:38.629Z,9.25
2023-05-06T09:09:06.626Z,9.25
2023-05-06T09:11:33.310Z,8.18
2023-05-06T09:14:08.084Z,7.50
2023-05-06T09:16:34.929Z,8.85
2023-05-06T09:19:03.766Z,7.85
2023-05-06T09:21:36.605Z,6.93
2023-05-06T09:24:07.992Z,7.90
2023-05-06T09:26:36.557Z,8.00
2023-05-06T09:29:09.167Z,6.65
2023-05-06T09:31:44.886Z,6.10
2023-05-06T09:34:12.603Z,5.95
2023-05-06T09:36:39.717Z,5.53
2023-05-06T09:39:06.929Z,5.93
2023-05-06T09:41:33.621Z,6.38
2023-05-06T09:44:00.476Z,5.85
2023-05-06T09:46:33.174Z,6.00
2023-05-06T09:49:00.612Z,5.93
2023-05-06T09:51:31.027Z,6.03
2023-05-06T09:53:59.324Z,5.65
2023-05-06T09:56:33.495Z,5.45
2023-05-06T09:59:04.223Z,4.97
2023-05-06T10:01:36.698Z,4.43
2023-05-06T10:04:08.844Z,4.53
2023-05-06T10:06:39.530Z,4.38
2023-05-06T10:09:10.490Z,4.53
2023-05-06T10:11:37.647Z,4.13
2023-05-06T10:14:06.781Z,4.38
2023-05-06T10:16:36.328Z,3.80
2023-05-06T10:19:04.842Z,3.53
2023-05-06T10:21:34.290Z,3.80
2023-05-06T10:24:07.449Z,3.30
2023-05-06T10:26:38.397Z,2.75
2023-05-06T10:29:10.317Z,3.53
2023-05-06T10:31:46.366Z,3.08
2023-05-06T10:34:16.674Z,3.22
2023-05-06T10:36:46.706Z,3.45
2023-05-06T10:39:14.344Z,3.60
2023-05-06T10:41:41.341Z,2.97
2023-05-06T10:44:10.033Z,3.53
2023-05-06T10:47:01.929Z,3.47
2023-05-06T10:49:29.136Z,3.60
2023-05-06T10:52:17.400Z,3.70
2023-05-06T10:54:51.905Z,3.25
2023-05-06T10:57:20.870Z,2.92
2023-05-06T10:59:51.358Z,2.40
2023-05-06T11:02:22.262Z,2.55
2023-05-06T11:05:00.631Z,3.05
2023-05-06T11:07:27.547Z,3.08
2023-05-06T11:10:02.151Z,3.70
2023-05-06T11:12:51.658Z,2.88
2023-05-06T11:15:26.631Z,2.53
2023-05-06T11:17:55.710Z,2.95
2023-05-06T11:20:25.506Z,3.30
2023-05-06T11:22:53.734Z,4.60
2023-05-06T11:25:40.903Z,2.67
2023-05-06T11:28:12.382Z,2.58
2023-05-06T11:30:44.979Z,2.75
2023-05-06T11:33:22.066Z,2.30
2023-05-06T11:35:48.635Z,2.38
2023-05-06T11:38:15.320Z,2.13
2023-05-06T11:40:42.677Z,2.10
2023-05-06T11:43:14.168Z,1.77
2023-05-06T11:45:48.000Z,2.35
2023-05-06T11:48:15.882Z,1.40
2023-05-06T11:50:49.842Z,2.47
2023-05-06T11:53:21.556Z,1.48
2023-05-06T11:55:49.197Z,1.13
2023-05-06T11:58:17.179Z,1.30
2023-05-06T12:01:03.772Z,0.88
2023-05-06T12:03:32.697Z,1.20
2023-05-06T12:06:02.100Z,1.10
2023-05-06T12:08:32.622Z,1.00
2023-05-06T12:11:05.024Z,1.40
2023-05-06T12:13:32.476Z,1.05
2023-05-06T12:16:02.475Z,1.25
2023-05-06T12:18:31.835Z,1.27
2023-05-06T12:21:06.106Z,1.67
2023-05-06T12:23:35.037Z,1.85
2023-05-06T12:26:04.231Z,2.65
2023-05-06T12:28:32.667Z,1.63
2023-05-06T12:31:17.498Z,1.17
2023-05-06T12:33:46.351Z,1.70
2023-05-06T12:36:13.061Z,1.90
2023-05-06T12:38:49.369Z,1.50
2023-05-06T12:41:16.165Z,1.20
2023-05-06T12:43:42.770Z,1.00
2023-05-06T12:46:12.550Z,1.13
2023-05-06T12:48:39.433Z,1.23
2023-05-06T12:51:32.729Z,1.05
2023-05-06T12:53:59.618Z,1.00
2023-05-06T12:56:29.388Z,1.17
2023-05-06T12:59:01.364Z,1.13
2023-05-06T13:01:31.413Z,0.90
2023-05-06T13:03:58.501Z,1.30
2023-05-06T13:06:25.338Z,1.40
2023-05-06T13:08:51.963Z,0.95
2023-05-06T13:11:18.568Z,1.20
2023-05-06T13:13:47.765Z,0.93
2023-05-06T13:16:14.356Z,1.00
2023-05-06T13:18:43.362Z,0.93
2023-05-06T13:21:14.061Z,0.77
2023-05-06T13:23:47.460Z,0.82
2023-05-06T13:26:15.027Z,0.95
2023-05-06T13:28:41.948Z,0.90
2023-05-06T13:31:08.522Z,1.02
2023-05-06T13:33:38.541Z,1.00
2023-05-06T13:36:10.575Z,0.90
2023-05-06T13:38:37.160Z,0.90
2023-05-06T13:41:03.870Z,1.08
2023-05-06T13:43:35.006Z,1.30
2023-05-06T13:46:04.026Z,0.68
2023-05-06T13:48:30.726Z,0.80
2023-05-06T13:50:57.689Z,0.80
2023-05-06T13:53:24.326Z,0.98
2023-05-06T13:55:50.844Z,0.88
2023-05-06T13:58:19.657Z,1.00
2023-05-06T14:00:48.686Z,1.15
2023-05-06T14:03:15.233Z,0.73
2023-05-06T14:05:42.279Z,0.88
2023-05-06T14:08:09.094Z,0.98
2023-05-06T14:10:35.688Z,0.88
2023-05-06T14:13:06.920Z,0.75
2023-05-06T14:15:33.974Z,1.08
2023-05-06T14:18:03.892Z,0.70
2023-05-06T14:20:30.786Z,0.90
2023-05-06T14:22:59.723Z,0.73
2023-05-06T14:25:28.668Z,0.70
2023-05-06T14:27:58.100Z,0.80
2023-05-06T14:30:25.891Z,1.08
2023-05-06T14:32:52.638Z,1.02
2023-05-06T14:35:19.342Z,0.90
2023-05-06T14:37:46.180Z,0.70
2023-05-06T14:40:16.267Z,0.70
2023-05-06T14:42:42.972Z,0.63
2023-05-06T14:45:10.137Z,0.95
2023-05-06T14:47:37.053Z,1.70
2023-05-06T14:50:03.874Z,1.00
2023-05-06T14:52:31.402Z,0.95
2023-05-06T14:54:58.063Z,1.60
2023-05-06T14:57:24.638Z,1.15
2023-05-06T14:59:54.094Z,1.48
2023-05-06T15:02:21.167Z,0.95
2023-05-06T15:04:52.464Z,0.82
2023-05-06T15:07:19.414Z,1.10
2023-05-06T15:09:45.976Z,0.80
2023-05-06T15:12:15.722Z,1.00
2023-05-06T15:14:44.594Z,0.98
2023-05-06T15:17:12.115Z,1.45
2023-05-06T15:19:40.983Z,0.90
2023-05-06T15:22:12.353Z,1.00
2023-05-06T15:24:39.109Z,0.93
2023-05-06T15:27:05.941Z,0.70
2023-05-06T15:29:32.847Z,0.80
2023-05-06T15:32:04.556Z,0.93
2023-05-06T15:34:31.265Z,1.10
2023-05-06T15:37:01.833Z,0.85
2023-05-06T15:39:28.694Z,0.80
2023-05-06T15:41:58.323Z,0.63
2023-05-06T15:44:27.298Z,0.70
2023-05-06T15:46:53.933Z,1.02
2023-05-06T15:49:48.945Z,1.20
2023-05-06T15:52:07.241Z,0.90
2023-05-06T15:54:37.564Z,0.65
2023-05-06T15:57:09.783Z,0.80
2023-05-06T15:59:36.419Z,0.80
2023-05-06T16:04:38.974Z,0.60
2023-05-06T16:07:05.770Z,1.20
2023-05-06T16:09:32.559Z,1.75
2023-05-06T16:12:01.620Z,1.27
2023-05-06T16:14:28.453Z,1.20
2023-05-06T16:16:55.068Z,1.50
2023-05-06T16:19:22.242Z,1.30
2023-05-06T16:21:51.448Z,1.40
2023-05-06T16:24:18.061Z,1.30
2023-05-06T16:26:44.885Z,1.55
2023-05-06T16:29:11.644Z,1.48
2023-05-06T16:31:38.453Z,1.60
2023-05-06T16:34:05.169Z,1.45
2023-05-06T16:36:34.184Z,1.73
2023-05-06T16:39:01.003Z,1.30
2023-05-06T16:41:27.988Z,1.73
2023-05-06T16:43:54.725Z,2.10
2023-05-06T16:46:24.772Z,2.25
2023-05-06T16:48:51.843Z,1.88
2023-05-06T16:51:18.505Z,1.90
2023-05-06T16:53:48.097Z,2.05
2023-05-06T16:56:14.689Z,1.73
2023-05-06T16:58:42.620Z,1.60
2023-05-06T17:01:09.795Z,1.77
2023-05-06T17:03:40.440Z,1.60
2023-05-06T17:06:07.839Z,1.52
2023-05-06T17:08:38.333Z,1.67
2023-05-06T17:11:08.588Z,1.50
2023-05-06T17:13:37.666Z,1.60
2023-05-06T17:16:04.778Z,1.77
2023-05-06T17:18:31.373Z,1.95
2023-05-06T17:20:57.997Z,2.30
2023-05-06T17:23:25.261Z,2.17
2023-05-06T17:25:51.986Z,1.63
2023-05-06T17:28:25.842Z,1.70
2023-05-06T17:30:59.496Z,1.67
2023-05-06T17:33:26.132Z,1.73
2023-05-06T17:35:52.660Z,1.80
2023-05-06T17:38:19.414Z,1.70
2023-05-06T17:40:45.976Z,1.88
2023-05-06T17:43:12.774Z,1.50
2023-05-06T17:45:43.206Z,1.60
2023-05-06T17:48:09.857Z,1.50
2023-05-06T17:50:36.472Z,1.20
2023-05-06T17:53:05.367Z,1.23
2023-05-06T17:55:31.992Z,1.42
2023-05-06T17:57:58.633Z,1.30
2023-05-06T18:00:25.765Z,1.30
2023-05-06T18:02:53.071Z,1.42
2023-05-06T18:05:19.834Z,1.52
2023-05-06T18:07:46.753Z,1.40
2023-05-06T18:10:13.835Z,1.17
2023-05-06T18:12:40.616Z,1.75
2023-05-06T18:15:08.528Z,1.90
2023-05-06T18:17:35.671Z,1.50
2023-05-06T18:20:02.433Z,1.73
2023-05-06T18:22:29.117Z,1.80
2023-05-06T18:24:56.085Z,1.90
2023-05-06T18:27:23.194Z,2.10
2023-05-06T18:29:53.079Z,1.80
2023-05-06T18:32:19.913Z,1.73
2023-05-06T18:34:49.160Z,1.85
2023-05-06T18:37:15.828Z,1.55
2023-05-06T18:39:45.538Z,1.90
2023-05-06T18:42:15.141Z,1.95
2023-05-06T18:44:43.158Z,1.95
2023-05-06T18:47:09.730Z,2.63
2023-05-06T18:49:38.851Z,2.28
2023-05-06T18:52:05.960Z,2.10
2023-05-06T18:54:32.688Z,2.03
2023-05-06T18:57:02.687Z,2.10
2023-05-06T18:59:29.494Z,1.88
2023-05-06T19:01:56.124Z,2.42
2023-05-06T19:04:25.126Z,1.92
2023-05-06T19:07:01.487Z,2.35
2023-05-06T19:09:28.358Z,2.15
2023-05-06T19:11:55.824Z,2.45
2023-05-06T19:14:25.867Z,2.63
2023-05-06T19:16:55.038Z,2.53
2023-05-06T19:19:21.919Z,2.20
2023-05-06T19:21:51.138Z,2.95
2023-05-06T19:24:22.973Z,2.58
2023-05-06T19:26:49.550Z,2.40
2023-05-06T19:29:16.159Z,2.50
2023-05-06T19:31:42.744Z,2.92
2023-05-06T19:34:09.371Z,3.90
2023-05-06T19:36:36.014Z,5.97
2023-05-06T19:39:02.581Z,5.88
2023-05-06T19:41:29.446Z,6.72
2023-05-06T19:43:58.529Z,8.43
2023-05-06T19:46:27.611Z,6.93
2023-05-06T19:48:54.184Z,5.90
2023-05-06T19:51:20.971Z,5.72
2023-05-06T19:53:49.115Z,5.30
2023-05-06T19:56:17.200Z,4.30
2023-05-06T19:58:44.394Z,4.13
2023-05-06T20:01:11.000Z,4.13
2023-05-06T20:03:38.060Z,4.28
2023-05-06T20:06:05.176Z,4.75
2023-05-06T20:08:31.953Z,5.00
2023-05-06T20:10:58.507Z,5.00
2023-05-06T20:13:29.989Z,4.45
2023-05-06T20:16:02.127Z,4.53
2023-05-06T20:18:28.830Z,4.75
2023-05-06T20:20:58.504Z,4.50
2023-05-06T20:23:25.956Z,4.30
2023-05-06T20:25:53.433Z,4.45
2023-05-06T20:28:20.243Z,5.40
2023-05-06T20:30:48.495Z,5.43
2023-05-06T20:33:17.339Z,4.70
2023-05-06T20:35:46.902Z,4.25
2023-05-06T20:38:17.222Z,4.30
2023-05-06T20:40:50.157Z,3.88
2023-05-06T20:43:17.312Z,4.30
2023-05-06T20:45:44.436Z,4.80
2023-05-06T20:48:12.915Z,4.65
2023-05-06T20:50:41.311Z,4.57
2023-05-06T20:53:10.740Z,4.07
2023-05-06T20:55:37.966Z,4.65
2023-05-06T20:58:05.583Z,4.25
2023-05-06T21:00:34.602Z,3.67
2023-05-06T21:03:05.335Z,4.40
2023-05-06T21:05:32.793Z,4.25
2023-05-06T21:07:59.735Z,4.82
2023-05-06T21:10:26.549Z,5.00
2023-05-06T21:12:53.521Z,5.50
2023-05-06T21:15:22.755Z,6.20
2023-05-06T21:17:51.970Z,5.85
2023-05-06T21:20:19.604Z,6.20
2023-05-06T21:22:46.638Z,6.88
2023-05-06T21:25:13.803Z,6.80
2023-05-06T21:27:40.699Z,6.90
2023-05-06T21:30:09.166Z,6.78
2023-05-06T21:32:36.283Z,6.90
2023-05-06T21:35:03.573Z,6.40
2023-05-06T21:37:30.561Z,6.80
2023-05-06T21:40:02.854Z,6.75
2023-05-06T21:42:30.358Z,6.70
2023-05-06T21:45:02.659Z,7.75
2023-05-06T21:47:29.730Z,7.63
2023-05-06T21:49:59.865Z,6.40
2023-05-06T21:52:27.058Z,7.03
2023-05-06T21:54:56.493Z,6.60
2023-05-06T21:57:27.589Z,7.00
2023-05-06T21:59:54.844Z,6.47
2023-05-06T22:02:24.846Z,6.85
2023-05-06T22:04:51.843Z,7.20
2023-05-06T22:07:21.256Z,7.13
2023-05-06T22:09:48.467Z,6.70
2023-05-06T22:12:17.688Z,6.82
2023-05-06T22:14:44.938Z,6.75
2023-05-06T22:17:19.201Z,6.32
2023-05-06T22:19:47.004Z,6.57
2023-05-06T22:22:17.240Z,6.57
2023-05-06T22:24:44.244Z,7.28
2023-05-06T22:27:11.659Z,7.28
2023-05-06T22:29:38.603Z,7.32
2023-05-06T22:32:09.373Z,7.15
2023-05-06T22:34:41.288Z,7.38
2023-05-06T22:37:13.630Z,7.18
2023-05-06T22:39:41.065Z,7.88
2023-05-06T22:42:08.800Z,7.90
2023-05-06T22:44:36.118Z,8.35
2023-05-06T22:47:05.811Z,7.85
2023-05-06T22:49:32.968Z,7.10
2023-05-06T22:52:00.044Z,8.02
2023-05-06T22:54:29.571Z,8.13
2023-05-06T22:56:59.141Z,8.13
2023-05-06T22:59:26.229Z,8.75
2023-05-06T23:01:53.398Z,8.35
2023-05-06T23:04:20.539Z,8.23
2023-05-06T23:06:50.147Z,8.27
2023-05-06T23:09:19.899Z,8.02
2023-05-06T23:11:48.993Z,8.45
2023-05-06T23:14:18.164Z,8.60
2023-05-06T23:16:48.204Z,8.25
2023-05-06T23:19:14.998Z,8.57
2023-05-06T23:21:43.921Z,9.23
2023-05-06T23:24:11.633Z,8.63
2023-05-06T23:26:40.589Z,9.00
2023-05-06T23:29:10.376Z,8.70
2023-05-06T23:31:37.282Z,8.73
2023-05-06T23:34:07.523Z,8.25
2023-05-06T23:36:34.449Z,9.10
2023-05-06T23:39:11.591Z,7.70
2023-05-06T23:41:38.626Z,8.63
2023-05-06T23:44:06.590Z,7.72
2023-05-06T23:46:33.506Z,7.40
2023-05-06T23:49:00.620Z,7.53
2023-05-06T23:51:29.888Z,8.45
2023-05-06T23:53:56.897Z,7.00
2023-05-06T23:56:26.693Z,6.90
2023-05-06T23:58:55.674Z,6.80
